首页
METAR-TAF:

METAR-TAF

机场 :

安曼民航機場

安曼, 约旦

纬度: 31-59N, 经度: 035-59E, 海拔: 767米

当前天气观测

该预报发布于35分钟前的12:00 UTC
风速12节,风向西
温度 30°C
湿度 38%
气压 1010 hPa
能見度: 6000
少量云层高于3000英尺

METAR: OJAM 181200Z 28012KT 6000 FEW030 30/14 Q1010 NOSIG

时间: 15:35 (12:35 UTC)

预报

该预报发布于1小时和35分钟前的11:00 UTC
预报有效从18日的 12点(UTC)到 19日的 18点(UTC)
风速8节,风向西
能見度: 5000
少量云层高于3000英尺
几率 40% :
短暂存在
从 18日的 12点(UTC)到 18日的 15点(UTC)
风速15节,风向西转西北
能見度: 4000
高吹尘

TAF: OJAM 181100Z 1812/1918 28008KT 5000 HZ FEW030 PROB40 TEMPO 1812/1815 29015KT 4000 BLDU

超过4000个机场的气象观测和天气预报(METAR&TAF报告)。

可查询的气象台以黄色和红色小点在地图上表示。

将鼠标移到小点上方,可查看气象台名称。

然后点击查看天气观测和预报。

如需切换地图:点击带黑十字的绿色按钮放大地图;点击带横线的绿色按钮缩小地图;或者点击绿色箭头查看邻近地区的地图。


METAR-TAF: